Tropical Cyclones
[Index]
Main Index Home Page Stock Weather Photos Extreme Storms Discussion Storm News and Storm Chasing Reports Tropical Cyclones / Hurricanes / Typhoons Weather Data and Links Wild Fires / Bushfires Weather Observation Techniques Weather Picture Catalogue Tornado Pictures and Reports Stock Video Footage and DVDs for sale
Season 1979-1980 Tropical Cyclone 198024 Track Map
Season 1979-1980 Summaries: [BoM-AU] [JTWC-AU] [JTWC-SIO] [JTWC-SPAC] [JTWC-SH]
<<- Previous TC | JTWC 1979-1980 Season | Next TC ->>

click for intensity scale information  Lat/long Grid: Show Hide

 Date Labels: Show Hide

Joint Typhoon Warning Centre Cyclone Data

Name: 198024

21 Mar 1980 12:00 UTC to 28 Mar 1980 00:00 UTC

    date/time    lat    long     hPa   cat  kts
1980-03-21 12   19.0   117.5                  30          
1980-03-21 18   18.6   116.9                  35          
1980-03-22 00   18.0   116.0                  35          
1980-03-22 06   16.8   114.9            1     40          
1980-03-22 12   16.0   113.5            1     45          
1980-03-22 18   16.2   111.7            1     45          
1980-03-23 00   16.5   110.0            1     50          
1980-03-23 06   16.6   108.9            2     55          
1980-03-23 12   16.7   107.8            2     55          
1980-03-23 18   16.7   106.5            2     60          
1980-03-24 00   16.7   105.3            2     65          
1980-03-24 06   16.8   104.6            2     70          
1980-03-24 12   16.9   104.0            3     75          
1980-03-24 18   17.0   102.9            3     80          
1980-03-25 00   17.0   101.8            3     85          
1980-03-25 06   17.1   100.9            3     90          
1980-03-25 12   17.2   100.3            3     95          
1980-03-25 18   17.4   100.1            4    105          
1980-03-26 00   17.8   100.0            4    110          
1980-03-26 06   19.1    99.7            4    110          
1980-03-26 12   20.5    99.5            4    110          
1980-03-26 18   21.5    99.4            4    105          
1980-03-27 00   22.5    99.5            3     95          
1980-03-27 06   23.7   100.1            3     80          
1980-03-27 12   25.0   100.8            2     60          
1980-03-27 18   27.0   101.2            2     55          
1980-03-28 00   29.8   101.6            2     55          
Winds are 1-min average.

Tropical cyclone tracks developed by Michael Bath using data from the Joint Typhoon Warning Centre Best Tracks and Google Maps.


[Australian Severe Weather index] [Copyright Notice] [Email Contacts] [Search This Site] [Privacy Policy]
Document: tropical_cyclone_198024.htm Updated: 18 September 2016